createdAt,value
2018-09-03T00:00:07.984Z,99.2
2018-09-03T00:05:03.182Z,99.2
2018-09-03T00:10:03.013Z,99.1
2018-09-03T00:15:08.361Z,98.8
2018-09-03T00:20:07.828Z,98.8
2018-09-03T00:25:03.102Z,98.8
2018-09-03T00:30:16.096Z,98.7
2018-09-03T00:35:17.997Z,98.5
2018-09-03T00:40:02.804Z,98.5
2018-09-03T00:45:03.214Z,98.6
2018-09-03T00:50:21.237Z,98.6
2018-09-03T00:55:05.393Z,98.7
2018-09-03T01:00:02.791Z,98.7
2018-09-03T01:05:03.093Z,98.7
2018-09-03T01:10:02.854Z,98.6
2018-09-03T01:15:10.911Z,98.3
2018-09-03T01:20:05.917Z,98.3
2018-09-03T01:25:05.234Z,98.4
2018-09-03T01:30:02.605Z,98.4
2018-09-03T01:35:03.003Z,98.3
2018-09-03T01:40:35.623Z,98.2
2018-09-03T01:45:02.923Z,98.2
2018-09-03T01:50:08.334Z,98.3
2018-09-03T01:55:05.089Z,98.3
2018-09-03T02:00:13.568Z,98.3
2018-09-03T02:05:07.859Z,98.3
2018-09-03T02:10:02.635Z,98.3
2018-09-03T02:15:03.041Z,98.4
2018-09-03T02:20:06.061Z,98.5
2018-09-03T02:25:02.738Z,98.5
2018-09-03T02:30:03.126Z,98.6
2018-09-03T02:35:05.976Z,98.9
2018-09-03T02:40:02.754Z,98.9
2018-09-03T02:45:08.257Z,99.1
2018-09-03T02:50:05.131Z,99.2
2018-09-03T02:55:02.922Z,99.2
2018-09-03T03:00:13.380Z,99.6
2018-09-03T03:05:20.259Z,99.8
2018-09-03T03:10:05.562Z,99.9
2018-09-03T03:15:03.505Z,99.9
2018-09-03T03:20:02.995Z,99.9
2018-09-03T03:25:03.330Z,99.9
2018-09-03T03:30:22.892Z,99.9
2018-09-03T03:35:08.258Z,99.9
2018-09-03T03:40:05.555Z,99.9
2018-09-03T03:45:03.464Z,99.9
2018-09-03T03:50:10.367Z,99.9
2018-09-03T03:55:03.462Z,99.9
2018-09-03T04:00:35.760Z,99.9
2018-09-03T04:05:15.750Z,99.9
2018-09-03T04:10:06.060Z,99.9
2018-09-03T04:15:05.406Z,99.9
2018-09-03T04:20:08.038Z,99.9
2018-09-03T04:25:03.410Z,99.9
2018-09-03T04:30:07.852Z,99.9
2018-09-03T04:35:08.298Z,99.9
2018-09-03T04:40:20.832Z,99.9
2018-09-03T04:45:07.624Z,99.9
2018-09-03T04:50:05.435Z,99.9
2018-09-03T04:55:05.979Z,99.9
2018-09-03T05:00:05.902Z,99.9
2018-09-03T05:05:05.369Z,99.9
2018-09-03T05:10:05.887Z,99.9
2018-09-03T05:15:03.503Z,99.9
2018-09-03T05:20:23.243Z,99.9
2018-09-03T05:25:02.566Z,99.9
2018-09-03T05:30:02.939Z,99.9
2018-09-03T05:35:15.941Z,99.9
2018-09-03T05:40:02.788Z,99.9
2018-09-03T05:45:05.712Z,99.9
2018-09-03T05:50:23.685Z,99.9
2018-09-03T05:55:08.146Z,99.9
2018-09-03T06:00:03.438Z,99.9
2018-09-03T06:05:10.440Z,99.9
2018-09-03T06:10:03.348Z,99.9
2018-09-03T06:15:25.355Z,99.9
2018-09-03T06:20:20.458Z,99.9
2018-09-03T06:25:03.047Z,99.9
2018-09-03T06:30:05.581Z,99.9
2018-09-03T06:35:06.008Z,99.9
2018-09-03T06:40:02.814Z,99.9
2018-09-03T06:45:05.740Z,99.9
2018-09-03T06:50:05.532Z,99.9
2018-09-03T06:55:03.266Z,99.9
2018-09-03T07:00:05.248Z,99.9
2018-09-03T07:05:08.055Z,99.8
2018-09-03T07:10:05.436Z,99.8
2018-09-03T07:15:03.227Z,99.8
2018-09-03T07:20:05.242Z,99.3
2018-09-03T07:25:02.940Z,99.3
2018-09-03T07:30:10.998Z,99.1
2018-09-03T07:35:17.847Z,98.9
2018-09-03T07:45:08.164Z,98.5
2018-09-03T07:50:08.606Z,98.6
2018-09-03T07:55:18.014Z,98.4
2018-09-03T08:00:08.391Z,98.5
2018-09-03T08:05:07.744Z,98.5
2018-09-03T08:10:07.612Z,98.2
2018-09-03T08:15:05.468Z,98.1
2018-09-03T08:20:03.021Z,98.1
2018-09-03T08:25:05.781Z,97.8
2018-09-03T08:30:18.448Z,96.9
2018-09-03T08:35:17.913Z,96
2018-09-03T08:40:05.487Z,95.6
2018-09-03T08:45:05.646Z,95.7
2018-09-03T08:50:05.608Z,95
2018-09-03T08:55:11.126Z,93.5
2018-09-03T09:00:21.159Z,92.4
2018-09-03T09:05:33.224Z,91.1
2018-09-03T09:10:02.976Z,91.1
2018-09-03T09:15:05.992Z,88.9
2018-09-03T09:20:03.453Z,88.9
2018-09-03T09:25:23.264Z,85.9
2018-09-03T09:30:07.728Z,84.4
2018-09-03T09:35:03.058Z,84.4
2018-09-03T09:40:02.878Z,83.6
2018-09-03T09:45:05.886Z,80.1
2018-09-03T09:50:08.338Z,78.9
2018-09-03T09:55:07.674Z,79.8
2018-09-03T10:00:03.143Z,79.6
2018-09-03T10:05:15.305Z,78.2
2018-09-03T10:10:08.128Z,75.3
2018-09-03T10:15:23.773Z,73.9
2018-09-03T10:20:10.719Z,72.8
2018-09-03T10:25:12.702Z,70.4
2018-09-03T10:30:08.365Z,68.7
2018-09-03T10:40:08.578Z,68.9
2018-09-03T10:45:05.470Z,67.7
2018-09-03T10:50:15.471Z,66.8
2018-09-03T10:55:03.300Z,66.6
2018-09-03T11:00:25.492Z,65.5
2018-09-03T11:05:05.377Z,65.2
2018-09-03T11:10:03.301Z,65.2
2018-09-03T11:15:02.740Z,64.5
2018-09-03T11:20:31.007Z,63.3
2018-09-03T11:25:05.932Z,64.1
2018-09-03T11:30:21.064Z,63.6
2018-09-03T11:35:02.867Z,63.6
2018-09-03T11:40:02.758Z,62.4
2018-09-03T11:45:05.778Z,61.7
2018-09-03T11:50:10.773Z,61.6
2018-09-03T11:55:02.573Z,61.5
2018-09-03T12:00:03.079Z,59.5
2018-09-03T12:05:08.424Z,59.9
2018-09-03T12:10:05.863Z,59.2
2018-09-03T12:15:02.715Z,59.2
2018-09-03T12:20:05.849Z,59.2
2018-09-03T12:25:12.703Z,58.2
2018-09-03T12:30:15.695Z,57.5
2018-09-03T12:35:08.487Z,55.8
2018-09-03T12:40:03.355Z,55.7
2018-09-03T12:45:05.348Z,55.5
2018-09-03T12:50:05.512Z,52
2018-09-03T12:55:03.460Z,52
2018-09-03T13:00:05.791Z,52.6
2018-09-03T13:05:05.900Z,48.6
2018-09-03T13:10:05.412Z,46.9
2018-09-03T13:15:03.251Z,46.9
2018-09-03T13:20:20.511Z,47.9
2018-09-03T13:25:15.946Z,47.9
2018-09-03T13:30:05.862Z,46.1
2018-09-03T13:35:07.887Z,46.6
2018-09-03T13:40:15.443Z,47.1
2018-09-03T13:45:07.591Z,43.4
2018-09-03T13:50:03.311Z,43.3
2018-09-03T13:55:23.085Z,40.4
2018-09-03T14:00:10.171Z,37.6
2018-09-03T14:05:08.158Z,35.6
2018-09-03T14:10:08.271Z,35.5
2018-09-03T14:15:02.717Z,35.7
2018-09-03T14:20:03.429Z,37.8
2018-09-03T14:25:18.247Z,33.8
2018-09-03T14:30:10.345Z,34.4
2018-09-03T14:35:03.285Z,34.4
2018-09-03T14:40:03.217Z,37
2018-09-03T14:45:23.126Z,36.9
2018-09-03T14:50:10.184Z,35.2
2018-09-03T14:55:03.074Z,35.2
2018-09-03T15:00:10.442Z,34.4
2018-09-03T15:05:05.512Z,34.8
2018-09-03T15:10:11.068Z,35.7
2018-09-03T15:15:10.669Z,37.6
2018-09-03T15:20:03.168Z,37.6
2018-09-03T15:25:05.268Z,39
2018-09-03T15:30:05.611Z,39.1
2018-09-03T15:35:02.561Z,39.1
2018-09-03T15:40:05.389Z,39.7
2018-09-03T15:45:08.398Z,41.9
2018-09-03T15:50:18.077Z,42.2
2018-09-03T15:55:18.649Z,42.5
2018-09-03T16:00:03.103Z,42.5
2018-09-03T16:05:25.374Z,44.3
2018-09-03T16:10:05.863Z,44.8
2018-09-03T16:15:10.392Z,44.9
2018-09-03T16:20:02.850Z,44.9
2018-09-03T16:25:05.814Z,44.6
2018-09-03T16:30:08.323Z,44.8
2018-09-03T16:35:10.271Z,45.9
2018-09-03T16:40:03.194Z,45.9
2018-09-03T16:45:30.460Z,46.6
2018-09-03T16:50:02.930Z,46.7
2018-09-03T16:55:23.819Z,47.3
2018-09-03T17:00:03.299Z,47.3
2018-09-03T17:05:05.346Z,48.3
2018-09-03T17:10:07.947Z,48.5
2018-09-03T17:15:15.938Z,49.4
2018-09-03T17:20:05.948Z,49.7
2018-09-03T17:25:08.225Z,51
2018-09-03T17:30:05.198Z,51.7
2018-09-03T17:35:03.145Z,51.7
2018-09-03T17:40:02.925Z,52.2
2018-09-03T17:45:10.134Z,55.3
2018-09-03T17:50:06.096Z,55.9
2018-09-03T17:55:07.981Z,56.6
2018-09-03T18:00:03.304Z,56.5
2018-09-03T18:05:02.730Z,55.5
2018-09-03T18:10:05.354Z,57.6
2018-09-03T18:15:03.263Z,57.6
2018-09-03T18:20:08.050Z,60
2018-09-03T18:25:11.056Z,58.3
2018-09-03T18:30:03.552Z,58.3
2018-09-03T18:35:05.687Z,60.3
2018-09-03T18:40:02.726Z,60.3
2018-09-03T18:45:03.237Z,61.7
2018-09-03T18:50:25.365Z,64.8
2018-09-03T18:55:02.810Z,64.7
2018-09-03T19:00:28.696Z,66.8
2018-09-03T19:05:10.704Z,67.8
2018-09-03T19:10:08.602Z,68.9
2018-09-03T19:15:05.822Z,70
2018-09-03T19:20:05.816Z,70.2
2018-09-03T19:25:08.043Z,70.9
2018-09-03T19:30:11.075Z,71.6
2018-09-03T19:35:05.355Z,72
2018-09-03T19:40:03.201Z,72
2018-09-03T19:45:02.564Z,72.6
2018-09-03T19:50:08.079Z,73.7
2018-09-03T19:55:03.368Z,73.7
2018-09-03T20:00:02.798Z,74.5
2018-09-03T20:05:28.514Z,75.5
2018-09-03T20:10:02.722Z,75.5
2018-09-03T20:15:05.685Z,77.1
2018-09-03T20:20:03.094Z,77.1
2018-09-03T20:25:16.110Z,78.6
2018-09-03T20:30:06.086Z,78.9
2018-09-03T20:35:07.873Z,79.3
2018-09-03T20:40:02.699Z,79.3
2018-09-03T20:45:03.105Z,80
2018-09-03T20:50:05.193Z,80.7
2018-09-03T20:55:13.096Z,81.2
2018-09-03T21:00:08.548Z,81.6
2018-09-03T21:05:10.471Z,82.3
2018-09-03T21:10:11.104Z,83
2018-09-03T21:15:17.948Z,83.5
2018-09-03T21:20:03.415Z,83.5
2018-09-03T21:25:02.815Z,84
2018-09-03T21:30:03.239Z,84.4
2018-09-03T21:35:05.213Z,85.5
2018-09-03T21:40:33.437Z,86.1
2018-09-03T21:45:05.334Z,86.9
2018-09-03T21:50:05.238Z,87.4
2018-09-03T21:55:05.590Z,88.4
2018-09-03T22:00:05.533Z,88.8
2018-09-03T22:05:08.425Z,89.5
2018-09-03T22:10:03.178Z,89.6
2018-09-03T22:15:02.630Z,90.1
2018-09-03T22:20:05.590Z,91.1
2018-09-03T22:25:21.151Z,91.5
2018-09-03T22:30:03.437Z,91.5
2018-09-03T22:35:05.352Z,92.7
2018-09-03T22:40:10.799Z,93.3
2018-09-03T22:45:08.541Z,93.9
2018-09-03T22:50:28.258Z,94.3
2018-09-03T22:55:07.625Z,94.7
2018-09-03T23:00:13.216Z,95.2
2018-09-03T23:05:05.914Z,95.6
2018-09-03T23:10:05.360Z,96.1
2018-09-03T23:15:03.110Z,96.1
2018-09-03T23:20:05.174Z,96.7
2018-09-03T23:25:05.541Z,96.9
2018-09-03T23:30:07.926Z,97.3
2018-09-03T23:35:08.429Z,97.4
2018-09-03T23:40:10.905Z,97.8
2018-09-03T23:45:05.153Z,98.1
2018-09-03T23:50:08.633Z,98.3
2018-09-03T23:55:07.940Z,98.9
